sensor_id;sensor_type;location;lat;lon;timestamp;temperature;humidity
25906;DHT22;13713;52.552;13.204;2022-09-06T00:00:54;23.40;48.30
25906;DHT22;13713;52.552;13.204;2022-09-06T00:03:20;23.40;48.30
25906;DHT22;13713;52.552;13.204;2022-09-06T00:05:45;23.40;48.20
25906;DHT22;13713;52.552;13.204;2022-09-06T00:08:11;23.40;48.20
25906;DHT22;13713;52.552;13.204;2022-09-06T00:10:38;23.40;48.20
25906;DHT22;13713;52.552;13.204;2022-09-06T00:13:05;23.40;48.20
25906;DHT22;13713;52.552;13.204;2022-09-06T00:15:31;23.40;48.10
25906;DHT22;13713;52.552;13.204;2022-09-06T00:17:58;23.40;48.10
25906;DHT22;13713;52.552;13.204;2022-09-06T00:20:25;23.40;48.10
25906;DHT22;13713;52.552;13.204;2022-09-06T00:22:56;23.40;48.10
25906;DHT22;13713;52.552;13.204;2022-09-06T00:25:22;23.40;48.10
25906;DHT22;13713;52.552;13.204;2022-09-06T00:27:52;23.40;48.10
25906;DHT22;13713;52.552;13.204;2022-09-06T00:30:18;23.30;48.00
25906;DHT22;13713;52.552;13.204;2022-09-06T00:32:43;23.30;48.00
25906;DHT22;13713;52.552;13.204;2022-09-06T00:35:09;23.30;47.90
25906;DHT22;13713;52.552;13.204;2022-09-06T00:37:34;23.40;48.00
25906;DHT22;13713;52.552;13.204;2022-09-06T00:40:00;23.30;48.00
25906;DHT22;13713;52.552;13.204;2022-09-06T00:42:26;23.30;47.90
25906;DHT22;13713;52.552;13.204;2022-09-06T00:44:52;23.30;47.90
25906;DHT22;13713;52.552;13.204;2022-09-06T00:47:18;23.30;47.90
25906;DHT22;13713;52.552;13.204;2022-09-06T00:49:47;23.30;47.90
25906;DHT22;13713;52.552;13.204;2022-09-06T00:52:15;23.30;47.80
25906;DHT22;13713;52.552;13.204;2022-09-06T00:54:41;23.30;47.90
25906;DHT22;13713;52.552;13.204;2022-09-06T00:57:07;23.30;47.90
25906;DHT22;13713;52.552;13.204;2022-09-06T00:59:35;23.30;47.80
25906;DHT22;13713;52.552;13.204;2022-09-06T01:02:05;23.30;47.80
25906;DHT22;13713;52.552;13.204;2022-09-06T01:04:32;23.30;47.80
25906;DHT22;13713;52.552;13.204;2022-09-06T01:28:38;23.20;47.30
25906;DHT22;13713;52.552;13.204;2022-09-06T01:31:23;23.20;47.30
25906;DHT22;13713;52.552;13.204;2022-09-06T01:34:15;23.20;47.30
25906;DHT22;13713;52.552;13.204;2022-09-06T01:36:49;23.30;47.40
25906;DHT22;13713;52.552;13.204;2022-09-06T01:39:33;23.20;47.30
25906;DHT22;13713;52.552;13.204;2022-09-06T01:42:13;23.20;47.20
25906;DHT22;13713;52.552;13.204;2022-09-06T01:44:43;23.30;47.30
25906;DHT22;13713;52.552;13.204;2022-09-06T01:48:09;23.20;47.20
25906;DHT22;13713;52.552;13.204;2022-09-06T01:55:59;23.20;47.10
25906;DHT22;13713;52.552;13.204;2022-09-06T01:58:56;23.20;47.20
25906;DHT22;13713;52.552;13.204;2022-09-06T02:01:39;23.20;47.10
25906;DHT22;13713;52.552;13.204;2022-09-06T02:04:30;23.20;47.10
25906;DHT22;13713;52.552;13.204;2022-09-06T02:07:09;23.20;47.00
25906;DHT22;13713;52.552;13.204;2022-09-06T02:09:39;23.20;47.00
25906;DHT22;13713;52.552;13.204;2022-09-06T02:12:09;23.20;47.00
25906;DHT22;13713;52.552;13.204;2022-09-06T02:14:49;23.20;47.00
25906;DHT22;13713;52.552;13.204;2022-09-06T02:17:19;23.20;47.00
25906;DHT22;13713;52.552;13.204;2022-09-06T02:19:50;23.10;46.90
25906;DHT22;13713;52.552;13.204;2022-09-06T02:22:21;23.10;46.90
25906;DHT22;13713;52.552;13.204;2022-09-06T02:24:49;23.20;47.60
25906;DHT22;13713;52.552;13.204;2022-09-06T02:27:16;23.20;46.90
25906;DHT22;13713;52.552;13.204;2022-09-06T02:29:41;23.10;46.90
25906;DHT22;13713;52.552;13.204;2022-09-06T02:32:19;23.20;46.90
25906;DHT22;13713;52.552;13.204;2022-09-06T02:34:45;23.10;46.80
25906;DHT22;13713;52.552;13.204;2022-09-06T02:37:15;23.10;46.80
25906;DHT22;13713;52.552;13.204;2022-09-06T02:39:40;23.10;46.80
25906;DHT22;13713;52.552;13.204;2022-09-06T02:42:08;23.20;46.80
25906;DHT22;13713;52.552;13.204;2022-09-06T02:44:35;23.10;46.70
25906;DHT22;13713;52.552;13.204;2022-09-06T02:47:00;23.20;46.70
25906;DHT22;13713;52.552;13.204;2022-09-06T02:49:28;23.20;46.70
25906;DHT22;13713;52.552;13.204;2022-09-06T02:51:54;23.10;46.70
25906;DHT22;13713;52.552;13.204;2022-09-06T02:54:20;23.10;46.60
25906;DHT22;13713;52.552;13.204;2022-09-06T02:56:46;23.10;46.60
25906;DHT22;13713;52.552;13.204;2022-09-06T02:59:11;23.10;46.60
25906;DHT22;13713;52.552;13.204;2022-09-06T03:01:37;23.10;46.50
25906;DHT22;13713;52.552;13.204;2022-09-06T03:04:02;23.10;46.50
25906;DHT22;13713;52.552;13.204;2022-09-06T03:06:28;23.10;46.50
25906;DHT22;13713;52.552;13.204;2022-09-06T03:08:54;23.10;46.50
25906;DHT22;13713;52.552;13.204;2022-09-06T03:11:20;23.10;46.50
25906;DHT22;13713;52.552;13.204;2022-09-06T03:13:45;23.10;46.50
25906;DHT22;13713;52.552;13.204;2022-09-06T03:16:11;23.10;46.50
25906;DHT22;13713;52.552;13.204;2022-09-06T03:18:36;23.10;46.40
25906;DHT22;13713;52.552;13.204;2022-09-06T03:21:02;23.10;46.40
25906;DHT22;13713;52.552;13.204;2022-09-06T03:23:28;23.10;46.50
25906;DHT22;13713;52.552;13.204;2022-09-06T03:25:54;23.10;46.40
25906;DHT22;13713;52.552;13.204;2022-09-06T03:28:21;23.10;46.40
25906;DHT22;13713;52.552;13.204;2022-09-06T03:30:48;23.10;46.40
25906;DHT22;13713;52.552;13.204;2022-09-06T03:33:14;23.10;46.40
25906;DHT22;13713;52.552;13.204;2022-09-06T03:35:47;23.10;46.40
25906;DHT22;13713;52.552;13.204;2022-09-06T03:38:13;23.10;47.00
25906;DHT22;13713;52.552;13.204;2022-09-06T03:40:39;23.10;46.30
25906;DHT22;13713;52.552;13.204;2022-09-06T03:43:05;23.00;46.30
25906;DHT22;13713;52.552;13.204;2022-09-06T03:45:30;23.10;46.40
25906;DHT22;13713;52.552;13.204;2022-09-06T03:47:56;23.10;46.30
25906;DHT22;13713;52.552;13.204;2022-09-06T03:50:21;23.10;46.30
25906;DHT22;13713;52.552;13.204;2022-09-06T03:52:47;23.10;46.30
25906;DHT22;13713;52.552;13.204;2022-09-06T03:55:13;23.10;46.30
25906;DHT22;13713;52.552;13.204;2022-09-06T03:57:38;23.10;46.30
25906;DHT22;13713;52.552;13.204;2022-09-06T04:00:04;23.00;46.20
25906;DHT22;13713;52.552;13.204;2022-09-06T04:02:36;23.10;46.30
25906;DHT22;13713;52.552;13.204;2022-09-06T04:05:02;23.00;46.20
25906;DHT22;13713;52.552;13.204;2022-09-06T04:07:28;23.00;46.20
25906;DHT22;13713;52.552;13.204;2022-09-06T04:09:54;23.10;46.30
25906;DHT22;13713;52.552;13.204;2022-09-06T04:12:20;23.10;46.30
25906;DHT22;13713;52.552;13.204;2022-09-06T04:14:45;23.10;46.30
25906;DHT22;13713;52.552;13.204;2022-09-06T04:17:11;23.00;46.20
25906;DHT22;13713;52.552;13.204;2022-09-06T04:19:38;23.10;46.30
25906;DHT22;13713;52.552;13.204;2022-09-06T04:22:04;23.00;46.20
25906;DHT22;13713;52.552;13.204;2022-09-06T04:24:29;23.00;46.20
25906;DHT22;13713;52.552;13.204;2022-09-06T04:26:55;23.00;46.20
25906;DHT22;13713;52.552;13.204;2022-09-06T04:29:20;23.10;46.20
25906;DHT22;13713;52.552;13.204;2022-09-06T04:31:46;23.00;46.10
25906;DHT22;13713;52.552;13.204;2022-09-06T04:34:12;23.00;46.10
25906;DHT22;13713;52.552;13.204;2022-09-06T04:36:37;23.10;46.20
25906;DHT22;13713;52.552;13.204;2022-09-06T04:39:03;23.00;46.10
25906;DHT22;13713;52.552;13.204;2022-09-06T04:41:29;23.00;46.20
25906;DHT22;13713;52.552;13.204;2022-09-06T04:43:55;23.00;46.10
25906;DHT22;13713;52.552;13.204;2022-09-06T04:48:50;23.00;46.10
25906;DHT22;13713;52.552;13.204;2022-09-06T04:51:16;23.00;46.20
25906;DHT22;13713;52.552;13.204;2022-09-06T04:53:43;23.00;46.10
25906;DHT22;13713;52.552;13.204;2022-09-06T04:56:17;23.00;46.10
25906;DHT22;13713;52.552;13.204;2022-09-06T04:58:44;23.00;46.10
25906;DHT22;13713;52.552;13.204;2022-09-06T05:01:10;23.00;46.10
25906;DHT22;13713;52.552;13.204;2022-09-06T05:03:36;23.00;46.10
25906;DHT22;13713;52.552;13.204;2022-09-06T05:06:13;23.00;46.10
25906;DHT22;13713;52.552;13.204;2022-09-06T05:08:42;23.00;46.10
25906;DHT22;13713;52.552;13.204;2022-09-06T05:11:08;23.00;46.10
25906;DHT22;13713;52.552;13.204;2022-09-06T05:13:35;23.00;46.10
25906;DHT22;13713;52.552;13.204;2022-09-06T05:16:02;23.00;46.10
25906;DHT22;13713;52.552;13.204;2022-09-06T05:18:28;23.00;46.00
25906;DHT22;13713;52.552;13.204;2022-09-06T05:20:54;23.00;46.00
25906;DHT22;13713;52.552;13.204;2022-09-06T05:23:20;23.00;46.00
25906;DHT22;13713;52.552;13.204;2022-09-06T05:25:46;23.00;46.00
25906;DHT22;13713;52.552;13.204;2022-09-06T05:28:13;23.00;46.00
25906;DHT22;13713;52.552;13.204;2022-09-06T05:30:39;23.00;46.00
25906;DHT22;13713;52.552;13.204;2022-09-06T05:33:06;23.00;46.00
25906;DHT22;13713;52.552;13.204;2022-09-06T05:35:32;23.00;46.00
25906;DHT22;13713;52.552;13.204;2022-09-06T05:37:57;23.00;46.00
25906;DHT22;13713;52.552;13.204;2022-09-06T05:40:23;23.00;46.00
25906;DHT22;13713;52.552;13.204;2022-09-06T05:42:49;23.00;46.00
25906;DHT22;13713;52.552;13.204;2022-09-06T05:45:14;23.00;46.00
25906;DHT22;13713;52.552;13.204;2022-09-06T05:47:40;23.00;46.00
25906;DHT22;13713;52.552;13.204;2022-09-06T05:50:06;23.10;46.00
25906;DHT22;13713;52.552;13.204;2022-09-06T05:52:33;23.10;46.00
25906;DHT22;13713;52.552;13.204;2022-09-06T05:55:00;23.10;46.10
25906;DHT22;13713;52.552;13.204;2022-09-06T05:57:26;23.10;46.00
25906;DHT22;13713;52.552;13.204;2022-09-06T05:59:51;23.10;46.10
25906;DHT22;13713;52.552;13.204;2022-09-06T06:02:21;23.10;46.10
25906;DHT22;13713;52.552;13.204;2022-09-06T06:04:47;23.10;45.80
25906;DHT22;13713;52.552;13.204;2022-09-06T06:07:13;23.10;45.60
25906;DHT22;13713;52.552;13.204;2022-09-06T06:09:39;23.10;45.30
25906;DHT22;13713;52.552;13.204;2022-09-06T06:12:05;23.00;45.10
25906;DHT22;13713;52.552;13.204;2022-09-06T06:14:31;23.00;45.00
25906;DHT22;13713;52.552;13.204;2022-09-06T06:16:56;23.00;44.80
25906;DHT22;13713;52.552;13.204;2022-09-06T06:19:22;23.00;44.70
25906;DHT22;13713;52.552;13.204;2022-09-06T06:21:48;23.00;44.70
25906;DHT22;13713;52.552;13.204;2022-09-06T06:24:13;23.00;44.50
25906;DHT22;13713;52.552;13.204;2022-09-06T06:26:39;23.00;44.50
25906;DHT22;13713;52.552;13.204;2022-09-06T06:29:05;23.00;44.30
25906;DHT22;13713;52.552;13.204;2022-09-06T06:31:34;22.90;44.30
25906;DHT22;13713;52.552;13.204;2022-09-06T06:34:01;22.90;44.20
25906;DHT22;13713;52.552;13.204;2022-09-06T06:36:29;22.90;44.80
25906;DHT22;13713;52.552;13.204;2022-09-06T06:38:58;22.90;44.00
25906;DHT22;13713;52.552;13.204;2022-09-06T06:41:26;22.90;44.10
25906;DHT22;13713;52.552;13.204;2022-09-06T06:43:53;22.90;44.00
25906;DHT22;13713;52.552;13.204;2022-09-06T06:46:19;22.90;44.00
25906;DHT22;13713;52.552;13.204;2022-09-06T06:48:45;22.90;44.10
25906;DHT22;13713;52.552;13.204;2022-09-06T06:51:13;22.90;44.10
25906;DHT22;13713;52.552;13.204;2022-09-06T06:53:39;22.90;44.10
25906;DHT22;13713;52.552;13.204;2022-09-06T06:56:38;22.90;44.10
25906;DHT22;13713;52.552;13.204;2022-09-06T06:59:06;23.00;44.10
25906;DHT22;13713;52.552;13.204;2022-09-06T07:01:33;23.00;43.90
25906;DHT22;13713;52.552;13.204;2022-09-06T07:03:58;23.00;44.10
25906;DHT22;13713;52.552;13.204;2022-09-06T07:06:25;23.00;44.10
25906;DHT22;13713;52.552;13.204;2022-09-06T07:08:52;23.00;44.20
25906;DHT22;13713;52.552;13.204;2022-09-06T07:11:17;23.00;44.10
25906;DHT22;13713;52.552;13.204;2022-09-06T07:13:44;23.00;44.00
25906;DHT22;13713;52.552;13.204;2022-09-06T07:16:21;23.00;43.90
25906;DHT22;13713;52.552;13.204;2022-09-06T07:18:50;23.00;44.00
25906;DHT22;13713;52.552;13.204;2022-09-06T07:21:24;23.00;44.10
25906;DHT22;13713;52.552;13.204;2022-09-06T07:23:54;23.00;44.00
25906;DHT22;13713;52.552;13.204;2022-09-06T07:26:28;23.00;44.10
25906;DHT22;13713;52.552;13.204;2022-09-06T07:28:56;23.00;44.10
25906;DHT22;13713;52.552;13.204;2022-09-06T07:31:22;23.00;44.20
25906;DHT22;13713;52.552;13.204;2022-09-06T07:33:48;23.00;44.00
25906;DHT22;13713;52.552;13.204;2022-09-06T07:36:14;23.00;44.10
25906;DHT22;13713;52.552;13.204;2022-09-06T07:38:39;23.00;44.10
25906;DHT22;13713;52.552;13.204;2022-09-06T07:41:07;23.00;44.10
25906;DHT22;13713;52.552;13.204;2022-09-06T07:43:33;23.00;44.20
25906;DHT22;13713;52.552;13.204;2022-09-06T07:46:02;23.00;44.20
25906;DHT22;13713;52.552;13.204;2022-09-06T07:48:32;23.00;44.30
25906;DHT22;13713;52.552;13.204;2022-09-06T07:51:07;23.00;44.30
25906;DHT22;13713;52.552;13.204;2022-09-06T07:53:34;22.90;44.30
25906;DHT22;13713;52.552;13.204;2022-09-06T07:56:00;22.90;44.30
25906;DHT22;13713;52.552;13.204;2022-09-06T07:58:28;22.90;44.40
25906;DHT22;13713;52.552;13.204;2022-09-06T08:00:54;22.90;44.50
25906;DHT22;13713;52.552;13.204;2022-09-06T08:03:19;22.90;44.50
25906;DHT22;13713;52.552;13.204;2022-09-06T08:05:49;22.90;44.50
25906;DHT22;13713;52.552;13.204;2022-09-06T08:08:14;22.90;44.50
25906;DHT22;13713;52.552;13.204;2022-09-06T08:10:40;22.90;44.60
25906;DHT22;13713;52.552;13.204;2022-09-06T08:13:06;22.90;44.70
25906;DHT22;13713;52.552;13.204;2022-09-06T08:15:31;22.90;44.80
25906;DHT22;13713;52.552;13.204;2022-09-06T08:17:57;22.90;44.80
25906;DHT22;13713;52.552;13.204;2022-09-06T08:20:23;22.90;44.90
25906;DHT22;13713;52.552;13.204;2022-09-06T08:22:48;22.90;45.00
25906;DHT22;13713;52.552;13.204;2022-09-06T08:25:14;22.90;45.00
25906;DHT22;13713;52.552;13.204;2022-09-06T08:27:40;22.90;45.10
25906;DHT22;13713;52.552;13.204;2022-09-06T08:30:06;22.90;45.10
25906;DHT22;13713;52.552;13.204;2022-09-06T08:32:32;22.90;45.20
25906;DHT22;13713;52.552;13.204;2022-09-06T08:35:00;22.90;45.20
25906;DHT22;13713;52.552;13.204;2022-09-06T08:37:26;22.90;45.20
25906;DHT22;13713;52.552;13.204;2022-09-06T08:39:51;22.90;45.30
25906;DHT22;13713;52.552;13.204;2022-09-06T08:42:17;22.90;45.30
25906;DHT22;13713;52.552;13.204;2022-09-06T08:44:51;23.10;45.40
25906;DHT22;13713;52.552;13.204;2022-09-06T08:47:19;23.00;45.40
25906;DHT22;13713;52.552;13.204;2022-09-06T08:49:49;23.00;45.50
25906;DHT22;13713;52.552;13.204;2022-09-06T08:52:51;22.90;45.50
25906;DHT22;13713;52.552;13.204;2022-09-06T08:55:44;22.90;45.60
25906;DHT22;13713;52.552;13.204;2022-09-06T09:01:11;23.00;45.60
25906;DHT22;13713;52.552;13.204;2022-09-06T09:03:39;23.00;45.60
25906;DHT22;13713;52.552;13.204;2022-09-06T09:06:07;23.00;45.60
25906;DHT22;13713;52.552;13.204;2022-09-06T09:09:07;23.00;45.70
25906;DHT22;13713;52.552;13.204;2022-09-06T09:11:35;23.00;45.70
25906;DHT22;13713;52.552;13.204;2022-09-06T09:14:04;23.00;45.80
25906;DHT22;13713;52.552;13.204;2022-09-06T09:16:32;23.00;45.80
25906;DHT22;13713;52.552;13.204;2022-09-06T09:19:01;23.00;45.90
25906;DHT22;13713;52.552;13.204;2022-09-06T09:21:30;23.00;45.90
25906;DHT22;13713;52.552;13.204;2022-09-06T09:23:59;23.00;46.00
25906;DHT22;13713;52.552;13.204;2022-09-06T09:26:27;23.00;46.00
25906;DHT22;13713;52.552;13.204;2022-09-06T09:29:04;23.00;46.00
25906;DHT22;13713;52.552;13.204;2022-09-06T09:31:41;23.00;46.00
25906;DHT22;13713;52.552;13.204;2022-09-06T09:34:12;23.00;46.10
25906;DHT22;13713;52.552;13.204;2022-09-06T09:36:39;23.00;46.10
25906;DHT22;13713;52.552;13.204;2022-09-06T09:39:09;23.00;46.20
25906;DHT22;13713;52.552;13.204;2022-09-06T09:41:37;23.00;46.10
25906;DHT22;13713;52.552;13.204;2022-09-06T09:44:17;23.00;46.10
25906;DHT22;13713;52.552;13.204;2022-09-06T09:46:43;23.00;46.20
25906;DHT22;13713;52.552;13.204;2022-09-06T09:49:26;23.10;46.30
25906;DHT22;13713;52.552;13.204;2022-09-06T09:52:09;23.00;46.30
25906;DHT22;13713;52.552;13.204;2022-09-06T09:54:37;23.10;46.50
25906;DHT22;13713;52.552;13.204;2022-09-06T09:57:08;23.00;46.40
25906;DHT22;13713;52.552;13.204;2022-09-06T09:59:43;23.00;46.50
25906;DHT22;13713;52.552;13.204;2022-09-06T10:02:26;23.10;46.50
25906;DHT22;13713;52.552;13.204;2022-09-06T10:05:02;23.00;46.50
25906;DHT22;13713;52.552;13.204;2022-09-06T10:07:30;23.00;46.50
25906;DHT22;13713;52.552;13.204;2022-09-06T10:09:58;23.10;46.60
25906;DHT22;13713;52.552;13.204;2022-09-06T10:13:06;23.10;46.60
25906;DHT22;13713;52.552;13.204;2022-09-06T10:15:34;23.10;46.60
25906;DHT22;13713;52.552;13.204;2022-09-06T10:18:00;23.10;46.70
25906;DHT22;13713;52.552;13.204;2022-09-06T10:20:47;23.10;46.60
25906;DHT22;13713;52.552;13.204;2022-09-06T10:26:23;23.10;46.50
25906;DHT22;13713;52.552;13.204;2022-09-06T10:29:03;23.10;46.50
25906;DHT22;13713;52.552;13.204;2022-09-06T10:31:35;23.10;46.50
25906;DHT22;13713;52.552;13.204;2022-09-06T10:37:48;23.10;46.60
25906;DHT22;13713;52.552;13.204;2022-09-06T10:40:28;23.10;46.50
25906;DHT22;13713;52.552;13.204;2022-09-06T10:42:56;23.10;46.50
25906;DHT22;13713;52.552;13.204;2022-09-06T10:48:16;23.10;46.50
25906;DHT22;13713;52.552;13.204;2022-09-06T10:56:08;23.20;46.60
25906;DHT22;13713;52.552;13.204;2022-09-06T11:01:47;23.20;46.70
25906;DHT22;13713;52.552;13.204;2022-09-06T11:04:30;23.20;46.60
25906;DHT22;13713;52.552;13.204;2022-09-06T11:06:59;23.20;46.60
25906;DHT22;13713;52.552;13.204;2022-09-06T11:12:37;23.20;46.60
25906;DHT22;13713;52.552;13.204;2022-09-06T11:15:05;23.30;46.60
25906;DHT22;13713;52.552;13.204;2022-09-06T11:17:40;23.20;46.60
25906;DHT22;13713;52.552;13.204;2022-09-06T11:20:16;23.30;46.60
25906;DHT22;13713;52.552;13.204;2022-09-06T11:27:50;23.30;46.50
25906;DHT22;13713;52.552;13.204;2022-09-06T11:30:17;23.30;46.60
25906;DHT22;13713;52.552;13.204;2022-09-06T11:32:48;23.30;46.60
25906;DHT22;13713;52.552;13.204;2022-09-06T11:35:29;23.30;46.50
25906;DHT22;13713;52.552;13.204;2022-09-06T11:38:04;23.30;46.60
25906;DHT22;13713;52.552;13.204;2022-09-06T11:40:44;23.30;46.60
25906;DHT22;13713;52.552;13.204;2022-09-06T11:43:58;23.30;46.60
25906;DHT22;13713;52.552;13.204;2022-09-06T11:45:58;23.30;46.60
25906;DHT22;13713;52.552;13.204;2022-09-06T11:51:00;23.30;46.60
25906;DHT22;13713;52.552;13.204;2022-09-06T11:53:31;23.30;46.70
25906;DHT22;13713;52.552;13.204;2022-09-06T11:58:49;23.30;46.70
25906;DHT22;13713;52.552;13.204;2022-09-06T12:06:31;23.40;46.80
25906;DHT22;13713;52.552;13.204;2022-09-06T12:08:58;23.40;46.80
25906;DHT22;13713;52.552;13.204;2022-09-06T12:11:33;23.40;46.80
25906;DHT22;13713;52.552;13.204;2022-09-06T12:19:53;23.40;46.70
25906;DHT22;13713;52.552;13.204;2022-09-06T12:25:14;23.50;46.70
25906;DHT22;13713;52.552;13.204;2022-09-06T12:28:04;23.50;46.80
25906;DHT22;13713;52.552;13.204;2022-09-06T12:32:57;23.50;46.90
25906;DHT22;13713;52.552;13.204;2022-09-06T12:35:27;23.50;46.80
25906;DHT22;13713;52.552;13.204;2022-09-06T12:38:05;23.50;46.80
25906;DHT22;13713;52.552;13.204;2022-09-06T12:40:34;23.50;46.70
25906;DHT22;13713;52.552;13.204;2022-09-06T12:43:03;23.50;46.80
25906;DHT22;13713;52.552;13.204;2022-09-06T12:45:29;23.50;46.70
25906;DHT22;13713;52.552;13.204;2022-09-06T12:48:10;23.50;46.70
25906;DHT22;13713;52.552;13.204;2022-09-06T12:50:36;23.50;46.90
25906;DHT22;13713;52.552;13.204;2022-09-06T12:53:17;23.50;46.90
25906;DHT22;13713;52.552;13.204;2022-09-06T12:55:42;23.60;46.90
25906;DHT22;13713;52.552;13.204;2022-09-06T12:58:10;23.60;46.80
25906;DHT22;13713;52.552;13.204;2022-09-06T13:00:40;23.60;46.90
25906;DHT22;13713;52.552;13.204;2022-09-06T13:05:52;23.60;46.80
25906;DHT22;13713;52.552;13.204;2022-09-06T13:08:32;23.60;46.80
25906;DHT22;13713;52.552;13.204;2022-09-06T13:10:59;23.60;46.80
25906;DHT22;13713;52.552;13.204;2022-09-06T13:13:26;23.60;46.70
25906;DHT22;13713;52.552;13.204;2022-09-06T13:15:52;23.60;46.80
25906;DHT22;13713;52.552;13.204;2022-09-06T13:18:36;23.60;46.80
25906;DHT22;13713;52.552;13.204;2022-09-06T13:21:07;23.70;46.90
25906;DHT22;13713;52.552;13.204;2022-09-06T13:23:47;23.60;46.80
25906;DHT22;13713;52.552;13.204;2022-09-06T13:26:31;23.60;46.70
25906;DHT22;13713;52.552;13.204;2022-09-06T13:31:50;23.60;46.80
25906;DHT22;13713;52.552;13.204;2022-09-06T13:34:28;23.60;46.90
25906;DHT22;13713;52.552;13.204;2022-09-06T13:37:03;23.60;46.90
25906;DHT22;13713;52.552;13.204;2022-09-06T13:39:37;23.70;47.00
25906;DHT22;13713;52.552;13.204;2022-09-06T13:42:06;23.70;46.90
25906;DHT22;13713;52.552;13.204;2022-09-06T13:44:33;23.70;47.00
25906;DHT22;13713;52.552;13.204;2022-09-06T13:47:00;23.70;47.10
25906;DHT22;13713;52.552;13.204;2022-09-06T13:49:26;23.60;47.00
25906;DHT22;13713;52.552;13.204;2022-09-06T13:51:53;23.60;47.10
25906;DHT22;13713;52.552;13.204;2022-09-06T13:54:20;23.60;47.10
25906;DHT22;13713;52.552;13.204;2022-09-06T13:56:47;23.60;47.10
25906;DHT22;13713;52.552;13.204;2022-09-06T13:59:14;23.60;47.10
25906;DHT22;13713;52.552;13.204;2022-09-06T14:01:42;23.60;47.20
25906;DHT22;13713;52.552;13.204;2022-09-06T14:04:10;23.60;47.20
25906;DHT22;13713;52.552;13.204;2022-09-06T14:06:37;23.60;47.30
25906;DHT22;13713;52.552;13.204;2022-09-06T14:09:02;23.60;47.30
25906;DHT22;13713;52.552;13.204;2022-09-06T14:11:28;23.60;47.30
25906;DHT22;13713;52.552;13.204;2022-09-06T14:13:54;23.60;47.30
25906;DHT22;13713;52.552;13.204;2022-09-06T14:16:19;23.60;47.30
25906;DHT22;13713;52.552;13.204;2022-09-06T14:18:45;23.60;47.40
25906;DHT22;13713;52.552;13.204;2022-09-06T14:21:11;23.50;47.40
25906;DHT22;13713;52.552;13.204;2022-09-06T14:23:36;23.60;47.50
25906;DHT22;13713;52.552;13.204;2022-09-06T14:26:03;23.60;47.50
25906;DHT22;13713;52.552;13.204;2022-09-06T14:28:34;23.60;47.50
25906;DHT22;13713;52.552;13.204;2022-09-06T14:31:14;23.60;47.50
25906;DHT22;13713;52.552;13.204;2022-09-06T14:33:40;23.60;47.50
25906;DHT22;13713;52.552;13.204;2022-09-06T14:36:08;23.60;47.50
25906;DHT22;13713;52.552;13.204;2022-09-06T14:38:38;23.60;47.60
25906;DHT22;13713;52.552;13.204;2022-09-06T14:41:05;23.60;47.60
25906;DHT22;13713;52.552;13.204;2022-09-06T14:43:32;23.60;47.60
25906;DHT22;13713;52.552;13.204;2022-09-06T14:46:05;23.60;47.60
25906;DHT22;13713;52.552;13.204;2022-09-06T14:48:32;23.60;47.60
25906;DHT22;13713;52.552;13.204;2022-09-06T14:51:05;23.60;47.60
25906;DHT22;13713;52.552;13.204;2022-09-06T14:53:31;23.60;47.70
25906;DHT22;13713;52.552;13.204;2022-09-06T14:56:01;23.60;47.60
25906;DHT22;13713;52.552;13.204;2022-09-06T14:58:32;23.60;48.30
25906;DHT22;13713;52.552;13.204;2022-09-06T15:01:06;23.60;47.70
25906;DHT22;13713;52.552;13.204;2022-09-06T15:03:33;23.60;47.70
25906;DHT22;13713;52.552;13.204;2022-09-06T15:05:59;23.60;47.80
25906;DHT22;13713;52.552;13.204;2022-09-06T15:08:24;23.60;47.80
25906;DHT22;13713;52.552;13.204;2022-09-06T15:10:54;23.60;47.90
25906;DHT22;13713;52.552;13.204;2022-09-06T15:13:20;23.60;47.90
25906;DHT22;13713;52.552;13.204;2022-09-06T15:15:46;23.60;48.00
25906;DHT22;13713;52.552;13.204;2022-09-06T15:18:11;23.50;48.00
25906;DHT22;13713;52.552;13.204;2022-09-06T15:20:37;23.50;48.10
25906;DHT22;13713;52.552;13.204;2022-09-06T15:23:03;23.50;48.10
25906;DHT22;13713;52.552;13.204;2022-09-06T15:25:30;23.60;48.20
25906;DHT22;13713;52.552;13.204;2022-09-06T15:27:57;23.50;48.80
25906;DHT22;13713;52.552;13.204;2022-09-06T15:30:22;23.50;48.20
25906;DHT22;13713;52.552;13.204;2022-09-06T15:32:48;23.50;48.30
25906;DHT22;13713;52.552;13.204;2022-09-06T15:35:14;23.50;48.30
25906;DHT22;13713;52.552;13.204;2022-09-06T15:37:40;23.50;48.30
25906;DHT22;13713;52.552;13.204;2022-09-06T15:40:06;23.50;48.30
25906;DHT22;13713;52.552;13.204;2022-09-06T15:42:32;23.50;48.40
25906;DHT22;13713;52.552;13.204;2022-09-06T15:44:58;23.50;48.40
25906;DHT22;13713;52.552;13.204;2022-09-06T15:47:24;23.50;48.40
25906;DHT22;13713;52.552;13.204;2022-09-06T15:49:50;23.50;48.40
25906;DHT22;13713;52.552;13.204;2022-09-06T15:52:16;23.50;48.50
25906;DHT22;13713;52.552;13.204;2022-09-06T15:54:41;23.50;48.50
25906;DHT22;13713;52.552;13.204;2022-09-06T15:57:26;23.50;48.50
25906;DHT22;13713;52.552;13.204;2022-09-06T15:59:53;23.50;48.50
25906;DHT22;13713;52.552;13.204;2022-09-06T16:02:19;23.50;48.50
25906;DHT22;13713;52.552;13.204;2022-09-06T16:04:45;23.50;49.20
25906;DHT22;13713;52.552;13.204;2022-09-06T16:07:11;23.50;48.60
25906;DHT22;13713;52.552;13.204;2022-09-06T16:09:37;23.50;48.60
25906;DHT22;13713;52.552;13.204;2022-09-06T16:12:03;23.50;48.60
25906;DHT22;13713;52.552;13.204;2022-09-06T16:14:28;23.50;48.60
25906;DHT22;13713;52.552;13.204;2022-09-06T16:16:54;23.50;48.70
25906;DHT22;13713;52.552;13.204;2022-09-06T16:19:22;23.50;48.70
25906;DHT22;13713;52.552;13.204;2022-09-06T16:21:48;23.50;48.70
25906;DHT22;13713;52.552;13.204;2022-09-06T16:24:16;23.50;48.70
25906;DHT22;13713;52.552;13.204;2022-09-06T16:26:44;23.50;48.70
25906;DHT22;13713;52.552;13.204;2022-09-06T16:29:15;23.50;48.80
25906;DHT22;13713;52.552;13.204;2022-09-06T16:31:42;23.40;48.80
25906;DHT22;13713;52.552;13.204;2022-09-06T16:34:09;23.50;48.90
25906;DHT22;13713;52.552;13.204;2022-09-06T16:36:35;23.50;48.80
25906;DHT22;13713;52.552;13.204;2022-09-06T16:39:00;23.40;48.80
25906;DHT22;13713;52.552;13.204;2022-09-06T16:41:32;23.40;48.90
25906;DHT22;13713;52.552;13.204;2022-09-06T16:43:58;23.40;48.90
25906;DHT22;13713;52.552;13.204;2022-09-06T16:46:25;23.40;48.90
25906;DHT22;13713;52.552;13.204;2022-09-06T16:48:59;23.40;48.90
25906;DHT22;13713;52.552;13.204;2022-09-06T16:51:26;23.40;48.90
25906;DHT22;13713;52.552;13.204;2022-09-06T16:53:53;23.40;48.90